sensor_id;sensor_type;location;lat;lon;timestamp;P1;durP1;ratioP1;P2;durP2;ratioP2
61393;SDS011;48555;50.952;-0.120;2023-08-06T00:00:20;6.80;;;3.03;;
61393;SDS011;48555;50.952;-0.120;2023-08-06T00:02:46;5.30;;;3.17;;
61393;SDS011;48555;50.952;-0.120;2023-08-06T00:05:11;7.00;;;2.95;;
61393;SDS011;48555;50.952;-0.120;2023-08-06T00:07:37;5.32;;;3.03;;
61393;SDS011;48555;50.952;-0.120;2023-08-06T00:10:02;5.03;;;2.90;;
61393;SDS011;48555;50.952;-0.120;2023-08-06T00:12:27;7.28;;;2.85;;
61393;SDS011;48555;50.952;-0.120;2023-08-06T00:14:53;5.90;;;2.97;;
61393;SDS011;48555;50.952;-0.120;2023-08-06T00:17:18;6.03;;;2.90;;
61393;SDS011;48555;50.952;-0.120;2023-08-06T00:19:44;5.13;;;2.67;;
61393;SDS011;48555;50.952;-0.120;2023-08-06T00:22:09;6.50;;;2.78;;
61393;SDS011;48555;50.952;-0.120;2023-08-06T00:24:35;5.07;;;2.78;;
61393;SDS011;48555;50.952;-0.120;2023-08-06T00:27:01;3.88;;;2.45;;
61393;SDS011;48555;50.952;-0.120;2023-08-06T00:29:27;4.93;;;2.50;;
61393;SDS011;48555;50.952;-0.120;2023-08-06T00:31:52;6.53;;;2.45;;
61393;SDS011;48555;50.952;-0.120;2023-08-06T00:34:17;3.85;;;2.25;;
61393;SDS011;48555;50.952;-0.120;2023-08-06T00:36:43;3.85;;;1.90;;
61393;SDS011;48555;50.952;-0.120;2023-08-06T00:39:08;3.22;;;2.05;;
61393;SDS011;48555;50.952;-0.120;2023-08-06T00:41:33;3.17;;;1.88;;
61393;SDS011;48555;50.952;-0.120;2023-08-06T00:43:59;4.03;;;2.10;;
61393;SDS011;48555;50.952;-0.120;2023-08-06T00:46:24;2.35;;;1.77;;
61393;SDS011;48555;50.952;-0.120;2023-08-06T00:48:50;2.58;;;1.73;;
61393;SDS011;48555;50.952;-0.120;2023-08-06T00:51:16;3.72;;;1.80;;
61393;SDS011;48555;50.952;-0.120;2023-08-06T00:53:41;3.88;;;2.00;;
61393;SDS011;48555;50.952;-0.120;2023-08-06T00:56:07;4.22;;;2.00;;
61393;SDS011;48555;50.952;-0.120;2023-08-06T00:58:34;3.88;;;1.95;;
61393;SDS011;48555;50.952;-0.120;2023-08-06T01:01:01;3.10;;;1.92;;
61393;SDS011;48555;50.952;-0.120;2023-08-06T01:03:27;3.65;;;1.80;;
61393;SDS011;48555;50.952;-0.120;2023-08-06T01:05:52;5.75;;;2.10;;
61393;SDS011;48555;50.952;-0.120;2023-08-06T01:13:46;3.90;;;1.67;;
61393;SDS011;48555;50.952;-0.120;2023-08-06T01:16:17;3.88;;;1.75;;
61393;SDS011;48555;50.952;-0.120;2023-08-06T01:18:43;3.47;;;1.60;;
61393;SDS011;48555;50.952;-0.120;2023-08-06T01:21:14;2.70;;;1.30;;
61393;SDS011;48555;50.952;-0.120;2023-08-06T01:23:42;3.60;;;1.55;;
61393;SDS011;48555;50.952;-0.120;2023-08-06T01:26:14;1.98;;;1.35;;
61393;SDS011;48555;50.952;-0.120;2023-08-06T01:28:51;3.00;;;1.48;;
61393;SDS011;48555;50.952;-0.120;2023-08-06T01:31:37;3.20;;;1.52;;
61393;SDS011;48555;50.952;-0.120;2023-08-06T01:34:05;3.50;;;1.80;;
61393;SDS011;48555;50.952;-0.120;2023-08-06T01:36:34;3.10;;;1.40;;
61393;SDS011;48555;50.952;-0.120;2023-08-06T01:39:00;3.25;;;1.45;;
61393;SDS011;48555;50.952;-0.120;2023-08-06T01:41:25;3.85;;;2.00;;
61393;SDS011;48555;50.952;-0.120;2023-08-06T01:43:51;4.18;;;1.80;;
61393;SDS011;48555;50.952;-0.120;2023-08-06T01:46:16;4.88;;;1.90;;
61393;SDS011;48555;50.952;-0.120;2023-08-06T01:48:42;4.03;;;2.03;;
61393;SDS011;48555;50.952;-0.120;2023-08-06T01:51:08;4.25;;;2.08;;
61393;SDS011;48555;50.952;-0.120;2023-08-06T01:53:33;4.57;;;2.10;;
61393;SDS011;48555;50.952;-0.120;2023-08-06T01:55:59;2.35;;;1.65;;
61393;SDS011;48555;50.952;-0.120;2023-08-06T01:58:24;3.90;;;1.98;;
61393;SDS011;48555;50.952;-0.120;2023-08-06T02:00:50;3.83;;;2.10;;
61393;SDS011;48555;50.952;-0.120;2023-08-06T02:03:15;5.30;;;2.15;;
61393;SDS011;48555;50.952;-0.120;2023-08-06T02:05:40;3.20;;;1.95;;
61393;SDS011;48555;50.952;-0.120;2023-08-06T02:08:06;5.22;;;2.03;;
61393;SDS011;48555;50.952;-0.120;2023-08-06T02:10:31;6.65;;;2.10;;
61393;SDS011;48555;50.952;-0.120;2023-08-06T02:12:57;4.38;;;2.35;;
61393;SDS011;48555;50.952;-0.120;2023-08-06T02:15:22;4.47;;;2.20;;
61393;SDS011;48555;50.952;-0.120;2023-08-06T02:17:47;4.65;;;2.30;;
61393;SDS011;48555;50.952;-0.120;2023-08-06T02:20:13;5.53;;;2.50;;
61393;SDS011;48555;50.952;-0.120;2023-08-06T02:22:38;5.40;;;2.25;;
61393;SDS011;48555;50.952;-0.120;2023-08-06T02:25:03;5.38;;;2.25;;
61393;SDS011;48555;50.952;-0.120;2023-08-06T02:27:29;5.45;;;2.40;;
61393;SDS011;48555;50.952;-0.120;2023-08-06T02:29:54;5.43;;;2.40;;
61393;SDS011;48555;50.952;-0.120;2023-08-06T02:32:20;4.60;;;2.45;;
61393;SDS011;48555;50.952;-0.120;2023-08-06T02:34:45;6.45;;;2.40;;
61393;SDS011;48555;50.952;-0.120;2023-08-06T02:37:10;5.70;;;2.28;;
61393;SDS011;48555;50.952;-0.120;2023-08-06T02:39:36;5.82;;;2.70;;
61393;SDS011;48555;50.952;-0.120;2023-08-06T02:42:04;5.30;;;2.55;;
61393;SDS011;48555;50.952;-0.120;2023-08-06T02:44:30;5.30;;;2.50;;
61393;SDS011;48555;50.952;-0.120;2023-08-06T02:46:56;5.10;;;2.50;;
61393;SDS011;48555;50.952;-0.120;2023-08-06T02:49:21;4.72;;;2.40;;
61393;SDS011;48555;50.952;-0.120;2023-08-06T02:51:46;4.45;;;2.42;;
61393;SDS011;48555;50.952;-0.120;2023-08-06T02:54:12;4.10;;;2.47;;
61393;SDS011;48555;50.952;-0.120;2023-08-06T02:56:37;6.13;;;2.72;;
61393;SDS011;48555;50.952;-0.120;2023-08-06T02:59:03;4.78;;;2.40;;
61393;SDS011;48555;50.952;-0.120;2023-08-06T03:01:28;4.32;;;2.40;;
61393;SDS011;48555;50.952;-0.120;2023-08-06T03:03:54;4.97;;;2.30;;
61393;SDS011;48555;50.952;-0.120;2023-08-06T03:06:19;7.05;;;2.80;;
61393;SDS011;48555;50.952;-0.120;2023-08-06T03:08:45;5.55;;;2.38;;
61393;SDS011;48555;50.952;-0.120;2023-08-06T03:11:10;5.28;;;2.50;;
61393;SDS011;48555;50.952;-0.120;2023-08-06T03:13:35;7.15;;;2.50;;
61393;SDS011;48555;50.952;-0.120;2023-08-06T03:16:01;6.20;;;2.40;;
61393;SDS011;48555;50.952;-0.120;2023-08-06T03:18:26;5.10;;;2.17;;
61393;SDS011;48555;50.952;-0.120;2023-08-06T03:20:52;3.75;;;2.13;;
61393;SDS011;48555;50.952;-0.120;2023-08-06T03:23:17;5.55;;;2.25;;
61393;SDS011;48555;50.952;-0.120;2023-08-06T03:25:43;5.93;;;2.67;;
61393;SDS011;48555;50.952;-0.120;2023-08-06T03:28:09;4.82;;;2.22;;
61393;SDS011;48555;50.952;-0.120;2023-08-06T03:30:35;5.53;;;2.80;;
61393;SDS011;48555;50.952;-0.120;2023-08-06T03:33:00;4.07;;;2.17;;
61393;SDS011;48555;50.952;-0.120;2023-08-06T03:35:25;6.10;;;2.40;;
61393;SDS011;48555;50.952;-0.120;2023-08-06T03:37:51;4.85;;;2.55;;
61393;SDS011;48555;50.952;-0.120;2023-08-06T03:40:16;4.97;;;2.17;;
61393;SDS011;48555;50.952;-0.120;2023-08-06T03:42:41;4.32;;;2.30;;
61393;SDS011;48555;50.952;-0.120;2023-08-06T03:45:07;6.10;;;2.50;;
61393;SDS011;48555;50.952;-0.120;2023-08-06T03:47:32;4.15;;;2.00;;
61393;SDS011;48555;50.952;-0.120;2023-08-06T03:49:58;5.13;;;2.33;;
61393;SDS011;48555;50.952;-0.120;2023-08-06T03:52:23;5.47;;;2.45;;
61393;SDS011;48555;50.952;-0.120;2023-08-06T03:54:49;5.13;;;2.15;;
61393;SDS011;48555;50.952;-0.120;2023-08-06T03:57:14;4.88;;;2.20;;
61393;SDS011;48555;50.952;-0.120;2023-08-06T03:59:39;3.22;;;1.98;;
61393;SDS011;48555;50.952;-0.120;2023-08-06T04:02:05;3.88;;;2.08;;
61393;SDS011;48555;50.952;-0.120;2023-08-06T04:04:30;4.75;;;2.50;;
61393;SDS011;48555;50.952;-0.120;2023-08-06T04:06:55;4.50;;;2.17;;
61393;SDS011;48555;50.952;-0.120;2023-08-06T04:09:21;4.63;;;2.38;;
61393;SDS011;48555;50.952;-0.120;2023-08-06T04:11:46;4.93;;;2.38;;
61393;SDS011;48555;50.952;-0.120;2023-08-06T04:14:11;5.63;;;2.33;;
61393;SDS011;48555;50.952;-0.120;2023-08-06T04:16:36;4.65;;;2.20;;
61393;SDS011;48555;50.952;-0.120;2023-08-06T04:19:02;4.20;;;2.30;;
61393;SDS011;48555;50.952;-0.120;2023-08-06T04:21:27;6.22;;;2.58;;
61393;SDS011;48555;50.952;-0.120;2023-08-06T04:23:53;5.43;;;2.33;;
61393;SDS011;48555;50.952;-0.120;2023-08-06T04:26:18;4.20;;;2.42;;
61393;SDS011;48555;50.952;-0.120;2023-08-06T04:28:43;4.63;;;2.30;;
61393;SDS011;48555;50.952;-0.120;2023-08-06T04:31:09;4.53;;;2.50;;
61393;SDS011;48555;50.952;-0.120;2023-08-06T04:33:34;5.20;;;2.60;;
61393;SDS011;48555;50.952;-0.120;2023-08-06T04:36:00;4.78;;;2.47;;
61393;SDS011;48555;50.952;-0.120;2023-08-06T04:38:25;5.43;;;2.35;;
61393;SDS011;48555;50.952;-0.120;2023-08-06T04:40:51;5.82;;;2.60;;
61393;SDS011;48555;50.952;-0.120;2023-08-06T04:43:16;6.18;;;2.40;;
61393;SDS011;48555;50.952;-0.120;2023-08-06T04:45:45;3.80;;;2.22;;
61393;SDS011;48555;50.952;-0.120;2023-08-06T04:48:12;4.82;;;2.13;;
61393;SDS011;48555;50.952;-0.120;2023-08-06T04:50:37;5.18;;;2.78;;
61393;SDS011;48555;50.952;-0.120;2023-08-06T04:53:02;6.20;;;2.53;;
61393;SDS011;48555;50.952;-0.120;2023-08-06T04:55:28;5.80;;;2.60;;
61393;SDS011;48555;50.952;-0.120;2023-08-06T04:57:53;6.30;;;2.30;;
61393;SDS011;48555;50.952;-0.120;2023-08-06T05:00:18;4.93;;;2.38;;
61393;SDS011;48555;50.952;-0.120;2023-08-06T05:02:44;6.43;;;2.42;;
61393;SDS011;48555;50.952;-0.120;2023-08-06T05:05:09;4.45;;;2.53;;
61393;SDS011;48555;50.952;-0.120;2023-08-06T05:07:34;5.57;;;2.47;;
61393;SDS011;48555;50.952;-0.120;2023-08-06T05:09:59;6.43;;;2.30;;
61393;SDS011;48555;50.952;-0.120;2023-08-06T05:12:25;6.63;;;2.58;;
61393;SDS011;48555;50.952;-0.120;2023-08-06T05:14:50;5.93;;;2.40;;
61393;SDS011;48555;50.952;-0.120;2023-08-06T05:17:15;6.10;;;2.50;;
61393;SDS011;48555;50.952;-0.120;2023-08-06T05:19:41;5.05;;;2.28;;
61393;SDS011;48555;50.952;-0.120;2023-08-06T05:22:06;4.55;;;2.25;;
61393;SDS011;48555;50.952;-0.120;2023-08-06T05:24:31;4.97;;;2.50;;
61393;SDS011;48555;50.952;-0.120;2023-08-06T05:26:57;5.35;;;2.67;;
61393;SDS011;48555;50.952;-0.120;2023-08-06T05:29:22;6.15;;;2.40;;
61393;SDS011;48555;50.952;-0.120;2023-08-06T05:31:47;4.45;;;2.50;;
61393;SDS011;48555;50.952;-0.120;2023-08-06T05:34:13;6.53;;;2.17;;
61393;SDS011;48555;50.952;-0.120;2023-08-06T05:36:38;4.60;;;2.33;;
61393;SDS011;48555;50.952;-0.120;2023-08-06T05:39:03;5.68;;;2.50;;
61393;SDS011;48555;50.952;-0.120;2023-08-06T05:41:29;4.25;;;2.30;;
61393;SDS011;48555;50.952;-0.120;2023-08-06T05:43:54;4.97;;;2.30;;
61393;SDS011;48555;50.952;-0.120;2023-08-06T05:46:19;6.90;;;2.33;;
61393;SDS011;48555;50.952;-0.120;2023-08-06T05:48:44;5.78;;;2.20;;
61393;SDS011;48555;50.952;-0.120;2023-08-06T05:51:10;3.90;;;2.33;;
61393;SDS011;48555;50.952;-0.120;2023-08-06T05:53:37;4.47;;;2.40;;
61393;SDS011;48555;50.952;-0.120;2023-08-06T05:56:03;4.97;;;2.20;;
61393;SDS011;48555;50.952;-0.120;2023-08-06T05:58:28;3.97;;;2.30;;
61393;SDS011;48555;50.952;-0.120;2023-08-06T06:00:55;4.93;;;2.20;;
61393;SDS011;48555;50.952;-0.120;2023-08-06T06:03:21;4.60;;;2.03;;
61393;SDS011;48555;50.952;-0.120;2023-08-06T06:05:46;4.82;;;2.20;;
61393;SDS011;48555;50.952;-0.120;2023-08-06T06:08:11;6.30;;;2.20;;
61393;SDS011;48555;50.952;-0.120;2023-08-06T06:10:37;4.85;;;2.30;;
61393;SDS011;48555;50.952;-0.120;2023-08-06T06:13:02;4.45;;;2.00;;
61393;SDS011;48555;50.952;-0.120;2023-08-06T06:15:27;4.90;;;2.58;;
61393;SDS011;48555;50.952;-0.120;2023-08-06T06:17:52;4.65;;;1.95;;
61393;SDS011;48555;50.952;-0.120;2023-08-06T06:20:18;4.35;;;1.92;;
61393;SDS011;48555;50.952;-0.120;2023-08-06T06:22:43;4.65;;;2.05;;
61393;SDS011;48555;50.952;-0.120;2023-08-06T06:25:08;4.03;;;2.20;;
61393;SDS011;48555;50.952;-0.120;2023-08-06T06:27:35;3.50;;;1.95;;
61393;SDS011;48555;50.952;-0.120;2023-08-06T06:30:00;3.40;;;1.92;;
61393;SDS011;48555;50.952;-0.120;2023-08-06T06:32:26;3.33;;;1.88;;
61393;SDS011;48555;50.952;-0.120;2023-08-06T06:34:51;5.82;;;2.30;;
61393;SDS011;48555;50.952;-0.120;2023-08-06T06:37:16;6.38;;;2.00;;
61393;SDS011;48555;50.952;-0.120;2023-08-06T06:39:42;4.82;;;2.25;;
61393;SDS011;48555;50.952;-0.120;2023-08-06T06:42:07;5.10;;;2.17;;
61393;SDS011;48555;50.952;-0.120;2023-08-06T06:44:32;4.65;;;2.10;;
61393;SDS011;48555;50.952;-0.120;2023-08-06T06:46:58;3.90;;;2.05;;
61393;SDS011;48555;50.952;-0.120;2023-08-06T06:49:23;5.05;;;2.10;;
61393;SDS011;48555;50.952;-0.120;2023-08-06T06:51:48;3.63;;;2.10;;
61393;SDS011;48555;50.952;-0.120;2023-08-06T06:54:14;4.30;;;1.83;;
61393;SDS011;48555;50.952;-0.120;2023-08-06T06:56:39;4.88;;;2.10;;
61393;SDS011;48555;50.952;-0.120;2023-08-06T06:59:05;3.70;;;2.10;;
61393;SDS011;48555;50.952;-0.120;2023-08-06T07:01:30;4.63;;;2.25;;
61393;SDS011;48555;50.952;-0.120;2023-08-06T07:03:55;4.43;;;2.05;;
61393;SDS011;48555;50.952;-0.120;2023-08-06T07:06:22;3.92;;;2.17;;
61393;SDS011;48555;50.952;-0.120;2023-08-06T07:08:47;5.13;;;2.10;;
61393;SDS011;48555;50.952;-0.120;2023-08-06T07:11:12;3.75;;;2.17;;
61393;SDS011;48555;50.952;-0.120;2023-08-06T07:13:38;4.88;;;2.25;;
61393;SDS011;48555;50.952;-0.120;2023-08-06T07:16:03;5.55;;;2.33;;
61393;SDS011;48555;50.952;-0.120;2023-08-06T07:18:28;3.83;;;2.28;;
61393;SDS011;48555;50.952;-0.120;2023-08-06T07:20:54;4.63;;;2.20;;
61393;SDS011;48555;50.952;-0.120;2023-08-06T07:23:21;4.35;;;2.10;;
61393;SDS011;48555;50.952;-0.120;2023-08-06T07:25:48;4.57;;;2.17;;
61393;SDS011;48555;50.952;-0.120;2023-08-06T07:28:14;3.00;;;1.90;;
61393;SDS011;48555;50.952;-0.120;2023-08-06T07:30:40;4.70;;;1.92;;
61393;SDS011;48555;50.952;-0.120;2023-08-06T07:33:06;3.53;;;2.15;;
61393;SDS011;48555;50.952;-0.120;2023-08-06T07:35:32;5.28;;;2.60;;
61393;SDS011;48555;50.952;-0.120;2023-08-06T07:37:58;4.68;;;2.53;;
61393;SDS011;48555;50.952;-0.120;2023-08-06T07:40:23;4.30;;;2.15;;
61393;SDS011;48555;50.952;-0.120;2023-08-06T07:42:49;4.82;;;2.35;;
61393;SDS011;48555;50.952;-0.120;2023-08-06T07:45:14;4.90;;;2.05;;
61393;SDS011;48555;50.952;-0.120;2023-08-06T07:47:39;6.28;;;2.92;;
61393;SDS011;48555;50.952;-0.120;2023-08-06T07:50:05;3.90;;;2.25;;
61393;SDS011;48555;50.952;-0.120;2023-08-06T07:52:30;5.25;;;2.35;;
61393;SDS011;48555;50.952;-0.120;2023-08-06T07:54:56;5.50;;;2.42;;
61393;SDS011;48555;50.952;-0.120;2023-08-06T07:57:21;5.07;;;2.40;;
61393;SDS011;48555;50.952;-0.120;2023-08-06T07:59:47;4.38;;;2.20;;
61393;SDS011;48555;50.952;-0.120;2023-08-06T08:02:12;4.10;;;2.10;;
61393;SDS011;48555;50.952;-0.120;2023-08-06T08:04:37;3.17;;;2.10;;
61393;SDS011;48555;50.952;-0.120;2023-08-06T08:07:03;4.95;;;2.30;;
61393;SDS011;48555;50.952;-0.120;2023-08-06T08:09:28;4.38;;;2.17;;
61393;SDS011;48555;50.952;-0.120;2023-08-06T08:11:54;5.18;;;2.45;;
61393;SDS011;48555;50.952;-0.120;2023-08-06T08:14:19;4.82;;;2.30;;
61393;SDS011;48555;50.952;-0.120;2023-08-06T08:16:45;5.07;;;2.40;;
61393;SDS011;48555;50.952;-0.120;2023-08-06T08:19:10;3.30;;;2.05;;
61393;SDS011;48555;50.952;-0.120;2023-08-06T08:21:35;3.67;;;2.10;;
61393;SDS011;48555;50.952;-0.120;2023-08-06T08:24:01;5.03;;;2.47;;
61393;SDS011;48555;50.952;-0.120;2023-08-06T08:26:26;3.80;;;1.95;;
61393;SDS011;48555;50.952;-0.120;2023-08-06T08:28:53;4.75;;;2.20;;
61393;SDS011;48555;50.952;-0.120;2023-08-06T08:31:18;4.30;;;2.22;;
61393;SDS011;48555;50.952;-0.120;2023-08-06T08:33:44;4.90;;;2.10;;
61393;SDS011;48555;50.952;-0.120;2023-08-06T08:36:09;4.63;;;2.20;;
61393;SDS011;48555;50.952;-0.120;2023-08-06T08:38:35;3.80;;;2.22;;
61393;SDS011;48555;50.952;-0.120;2023-08-06T08:41:00;5.32;;;2.28;;
61393;SDS011;48555;50.952;-0.120;2023-08-06T08:43:26;4.15;;;2.28;;
61393;SDS011;48555;50.952;-0.120;2023-08-06T08:45:52;6.07;;;2.30;;
61393;SDS011;48555;50.952;-0.120;2023-08-06T08:48:23;3.83;;;2.20;;
61393;SDS011;48555;50.952;-0.120;2023-08-06T08:50:49;3.42;;;1.88;;
61393;SDS011;48555;50.952;-0.120;2023-08-06T08:53:16;5.10;;;2.10;;
61393;SDS011;48555;50.952;-0.120;2023-08-06T08:55:42;3.97;;;2.17;;
61393;SDS011;48555;50.952;-0.120;2023-08-06T08:58:09;5.15;;;2.33;;
61393;SDS011;48555;50.952;-0.120;2023-08-06T09:00:35;4.13;;;2.30;;
61393;SDS011;48555;50.952;-0.120;2023-08-06T09:03:00;4.03;;;2.25;;
61393;SDS011;48555;50.952;-0.120;2023-08-06T09:05:30;5.18;;;2.30;;
61393;SDS011;48555;50.952;-0.120;2023-08-06T09:07:56;4.30;;;2.40;;
61393;SDS011;48555;50.952;-0.120;2023-08-06T09:10:27;5.28;;;2.20;;
61393;SDS011;48555;50.952;-0.120;2023-08-06T09:12:53;3.63;;;2.30;;
61393;SDS011;48555;50.952;-0.120;2023-08-06T09:15:20;5.25;;;2.33;;
61393;SDS011;48555;50.952;-0.120;2023-08-06T09:17:45;4.10;;;2.17;;
61393;SDS011;48555;50.952;-0.120;2023-08-06T09:20:14;5.40;;;2.40;;
61393;SDS011;48555;50.952;-0.120;2023-08-06T09:22:40;4.40;;;1.98;;
61393;SDS011;48555;50.952;-0.120;2023-08-06T09:25:06;4.38;;;2.08;;
61393;SDS011;48555;50.952;-0.120;2023-08-06T09:27:38;3.72;;;2.10;;
61393;SDS011;48555;50.952;-0.120;2023-08-06T09:30:03;4.88;;;2.10;;
61393;SDS011;48555;50.952;-0.120;2023-08-06T09:32:44;5.78;;;2.45;;
61393;SDS011;48555;50.952;-0.120;2023-08-06T09:35:16;3.45;;;2.03;;
61393;SDS011;48555;50.952;-0.120;2023-08-06T09:37:42;4.72;;;2.20;;
61393;SDS011;48555;50.952;-0.120;2023-08-06T09:43:08;3.72;;;2.00;;
61393;SDS011;48555;50.952;-0.120;2023-08-06T09:45:34;6.70;;;1.95;;
61393;SDS011;48555;50.952;-0.120;2023-08-06T09:48:04;4.35;;;1.70;;
61393;SDS011;48555;50.952;-0.120;2023-08-06T09:50:31;3.33;;;1.73;;
61393;SDS011;48555;50.952;-0.120;2023-08-06T09:52:59;5.05;;;2.10;;
61393;SDS011;48555;50.952;-0.120;2023-08-06T09:55:26;2.97;;;1.75;;
61393;SDS011;48555;50.952;-0.120;2023-08-06T09:57:52;4.22;;;1.90;;
61393;SDS011;48555;50.952;-0.120;2023-08-06T10:00:18;2.95;;;1.80;;
61393;SDS011;48555;50.952;-0.120;2023-08-06T10:02:45;4.07;;;1.70;;
61393;SDS011;48555;50.952;-0.120;2023-08-06T10:05:10;1.92;;;1.55;;
61393;SDS011;48555;50.952;-0.120;2023-08-06T10:07:36;2.20;;;1.60;;
61393;SDS011;48555;50.952;-0.120;2023-08-06T10:10:04;2.20;;;1.42;;
61393;SDS011;48555;50.952;-0.120;2023-08-06T10:12:34;3.28;;;1.75;;
61393;SDS011;48555;50.952;-0.120;2023-08-06T10:15:06;4.35;;;2.00;;
61393;SDS011;48555;50.952;-0.120;2023-08-06T10:17:34;3.58;;;1.80;;
61393;SDS011;48555;50.952;-0.120;2023-08-06T10:20:02;2.38;;;1.30;;
61393;SDS011;48555;50.952;-0.120;2023-08-06T10:22:29;3.15;;;1.60;;
61393;SDS011;48555;50.952;-0.120;2023-08-06T10:24:58;3.75;;;1.88;;
61393;SDS011;48555;50.952;-0.120;2023-08-06T10:32:51;3.88;;;1.83;;
61393;SDS011;48555;50.952;-0.120;2023-08-06T10:35:36;3.10;;;1.75;;
61393;SDS011;48555;50.952;-0.120;2023-08-06T10:38:03;4.28;;;2.00;;
61393;SDS011;48555;50.952;-0.120;2023-08-06T10:40:32;4.75;;;2.10;;
61393;SDS011;48555;50.952;-0.120;2023-08-06T10:42:58;3.80;;;2.03;;
61393;SDS011;48555;50.952;-0.120;2023-08-06T10:45:24;2.20;;;1.48;;
61393;SDS011;48555;50.952;-0.120;2023-08-06T10:47:53;3.25;;;1.70;;
61393;SDS011;48555;50.952;-0.120;2023-08-06T10:50:20;2.97;;;1.60;;
61393;SDS011;48555;50.952;-0.120;2023-08-06T10:52:46;4.05;;;2.03;;
61393;SDS011;48555;50.952;-0.120;2023-08-06T10:55:12;5.43;;;1.85;;
61393;SDS011;48555;50.952;-0.120;2023-08-06T10:57:58;5.88;;;1.85;;
61393;SDS011;48555;50.952;-0.120;2023-08-06T11:00:23;2.67;;;1.55;;
61393;SDS011;48555;50.952;-0.120;2023-08-06T11:02:49;2.65;;;1.60;;
61393;SDS011;48555;50.952;-0.120;2023-08-06T11:05:15;2.58;;;1.55;;
61393;SDS011;48555;50.952;-0.120;2023-08-06T11:07:42;3.15;;;1.80;;
61393;SDS011;48555;50.952;-0.120;2023-08-06T11:10:08;3.67;;;1.50;;
61393;SDS011;48555;50.952;-0.120;2023-08-06T11:12:36;2.70;;;1.60;;
61393;SDS011;48555;50.952;-0.120;2023-08-06T11:15:01;2.88;;;1.65;;
61393;SDS011;48555;50.952;-0.120;2023-08-06T11:17:28;3.83;;;1.65;;
61393;SDS011;48555;50.952;-0.120;2023-08-06T11:19:56;1.85;;;1.50;;
61393;SDS011;48555;50.952;-0.120;2023-08-06T11:22:24;1.70;;;1.13;;
61393;SDS011;48555;50.952;-0.120;2023-08-06T11:24:50;2.13;;;1.30;;
61393;SDS011;48555;50.952;-0.120;2023-08-06T11:27:16;2.40;;;1.42;;
61393;SDS011;48555;50.952;-0.120;2023-08-06T11:29:42;1.58;;;1.20;;
61393;SDS011;48555;50.952;-0.120;2023-08-06T11:32:08;2.88;;;1.40;;
61393;SDS011;48555;50.952;-0.120;2023-08-06T11:34:35;2.95;;;1.35;;
61393;SDS011;48555;50.952;-0.120;2023-08-06T11:37:00;3.60;;;1.63;;
61393;SDS011;48555;50.952;-0.120;2023-08-06T11:39:29;2.53;;;1.27;;
61393;SDS011;48555;50.952;-0.120;2023-08-06T11:41:55;3.40;;;1.35;;
61393;SDS011;48555;50.952;-0.120;2023-08-06T11:44:21;2.17;;;1.30;;
61393;SDS011;48555;50.952;-0.120;2023-08-06T11:46:51;2.53;;;1.35;;
61393;SDS011;48555;50.952;-0.120;2023-08-06T11:49:18;3.47;;;1.60;;
61393;SDS011;48555;50.952;-0.120;2023-08-06T11:51:47;3.65;;;1.40;;
61393;SDS011;48555;50.952;-0.120;2023-08-06T11:54:13;2.78;;;1.33;;
61393;SDS011;48555;50.952;-0.120;2023-08-06T11:56:38;2.40;;;1.40;;
61393;SDS011;48555;50.952;-0.120;2023-08-06T11:59:03;5.88;;;1.58;;
61393;SDS011;48555;50.952;-0.120;2023-08-06T12:01:29;3.05;;;1.60;;
61393;SDS011;48555;50.952;-0.120;2023-08-06T12:04:00;3.67;;;1.40;;
61393;SDS011;48555;50.952;-0.120;2023-08-06T12:06:29;2.63;;;1.33;;
61393;SDS011;48555;50.952;-0.120;2023-08-06T12:08:54;2.75;;;1.50;;
61393;SDS011;48555;50.952;-0.120;2023-08-06T12:11:23;2.22;;;1.20;;
61393;SDS011;48555;50.952;-0.120;2023-08-06T12:13:51;1.92;;;1.35;;
61393;SDS011;48555;50.952;-0.120;2023-08-06T12:16:17;2.03;;;1.40;;
61393;SDS011;48555;50.952;-0.120;2023-08-06T12:18:44;1.58;;;1.00;;
61393;SDS011;48555;50.952;-0.120;2023-08-06T12:21:10;2.42;;;1.30;;
61393;SDS011;48555;50.952;-0.120;2023-08-06T12:23:35;3.38;;;1.60;;
61393;SDS011;48555;50.952;-0.120;2023-08-06T12:26:01;2.95;;;1.50;;
61393;SDS011;48555;50.952;-0.120;2023-08-06T12:28:26;3.17;;;1.23;;
61393;SDS011;48555;50.952;-0.120;2023-08-06T12:30:52;3.35;;;1.35;;
61393;SDS011;48555;50.952;-0.120;2023-08-06T12:33:20;2.72;;;1.50;;
61393;SDS011;48555;50.952;-0.120;2023-08-06T12:35:45;4.55;;;1.50;;
61393;SDS011;48555;50.952;-0.120;2023-08-06T12:38:10;4.82;;;1.73;;
61393;SDS011;48555;50.952;-0.120;2023-08-06T12:40:35;1.85;;;1.38;;
61393;SDS011;48555;50.952;-0.120;2023-08-06T12:43:01;2.88;;;1.30;;
61393;SDS011;48555;50.952;-0.120;2023-08-06T12:45:26;3.25;;;1.25;;
61393;SDS011;48555;50.952;-0.120;2023-08-06T12:47:51;1.42;;;1.10;;
61393;SDS011;48555;50.952;-0.120;2023-08-06T12:50:17;1.77;;;1.20;;
61393;SDS011;48555;50.952;-0.120;2023-08-06T12:52:42;2.03;;;1.25;;
61393;SDS011;48555;50.952;-0.120;2023-08-06T12:55:08;2.28;;;1.55;;
61393;SDS011;48555;50.952;-0.120;2023-08-06T12:57:33;2.45;;;1.30;;
61393;SDS011;48555;50.952;-0.120;2023-08-06T12:59:59;1.77;;;1.30;;
61393;SDS011;48555;50.952;-0.120;2023-08-06T13:02:25;1.98;;;1.38;;
61393;SDS011;48555;50.952;-0.120;2023-08-06T13:04:54;2.42;;;1.30;;
61393;SDS011;48555;50.952;-0.120;2023-08-06T13:07:19;2.13;;;1.30;;
61393;SDS011;48555;50.952;-0.120;2023-08-06T13:09:45;3.55;;;1.60;;
61393;SDS011;48555;50.952;-0.120;2023-08-06T13:12:10;2.53;;;1.30;;
61393;SDS011;48555;50.952;-0.120;2023-08-06T13:14:35;1.67;;;1.35;;
61393;SDS011;48555;50.952;-0.120;2023-08-06T13:17:01;1.63;;;1.13;;
61393;SDS011;48555;50.952;-0.120;2023-08-06T13:19:27;2.42;;;1.35;;
61393;SDS011;48555;50.952;-0.120;2023-08-06T13:22:00;3.08;;;1.23;;
61393;SDS011;48555;50.952;-0.120;2023-08-06T13:24:27;1.30;;;1.10;;
61393;SDS011;48555;50.952;-0.120;2023-08-06T13:26:53;2.60;;;1.40;;
61393;SDS011;48555;50.952;-0.120;2023-08-06T13:29:18;2.53;;;1.33;;
61393;SDS011;48555;50.952;-0.120;2023-08-06T13:31:44;1.80;;;1.17;;
61393;SDS011;48555;50.952;-0.120;2023-08-06T13:34:09;2.90;;;1.63;;
61393;SDS011;48555;50.952;-0.120;2023-08-06T13:36:34;2.92;;;1.20;;
61393;SDS011;48555;50.952;-0.120;2023-08-06T13:39:00;3.42;;;1.40;;
61393;SDS011;48555;50.952;-0.120;2023-08-06T13:41:26;2.03;;;1.10;;
61393;SDS011;48555;50.952;-0.120;2023-08-06T13:43:51;2.10;;;1.40;;
61393;SDS011;48555;50.952;-0.120;2023-08-06T13:46:18;1.40;;;0.95;;
61393;SDS011;48555;50.952;-0.120;2023-08-06T13:48:44;2.33;;;1.05;;
61393;SDS011;48555;50.952;-0.120;2023-08-06T13:51:11;2.72;;;1.30;;
61393;SDS011;48555;50.952;-0.120;2023-08-06T13:53:38;2.72;;;1.13;;
61393;SDS011;48555;50.952;-0.120;2023-08-06T13:56:04;2.97;;;1.00;;
61393;SDS011;48555;50.952;-0.120;2023-08-06T13:58:31;1.40;;;0.90;;
61393;SDS011;48555;50.952;-0.120;2023-08-06T14:00:56;1.63;;;1.25;;
61393;SDS011;48555;50.952;-0.120;2023-08-06T14:03:22;2.22;;;1.48;;
61393;SDS011;48555;50.952;-0.120;2023-08-06T14:05:48;4.00;;;1.58;;
61393;SDS011;48555;50.952;-0.120;2023-08-06T14:08:14;3.35;;;1.60;;
61393;SDS011;48555;50.952;-0.120;2023-08-06T14:10:39;1.67;;;1.15;;
61393;SDS011;48555;50.952;-0.120;2023-08-06T14:13:05;2.50;;;1.40;;
61393;SDS011;48555;50.952;-0.120;2023-08-06T14:15:30;2.75;;;1.38;;
61393;SDS011;48555;50.952;-0.120;2023-08-06T14:17:55;4.80;;;1.30;;
61393;SDS011;48555;50.952;-0.120;2023-08-06T14:20:21;2.63;;;1.40;;
61393;SDS011;48555;50.952;-0.120;2023-08-06T14:22:46;1.27;;;1.13;;
61393;SDS011;48555;50.952;-0.120;2023-08-06T14:25:11;1.65;;;1.30;;
61393;SDS011;48555;50.952;-0.120;2023-08-06T14:27:37;1.98;;;1.27;;
61393;SDS011;48555;50.952;-0.120;2023-08-06T14:30:04;2.38;;;1.10;;
61393;SDS011;48555;50.952;-0.120;2023-08-06T14:32:31;3.47;;;1.30;;
61393;SDS011;48555;50.952;-0.120;2023-08-06T14:34:57;2.72;;;1.40;;
61393;SDS011;48555;50.952;-0.120;2023-08-06T14:37:23;1.60;;;1.00;;
61393;SDS011;48555;50.952;-0.120;2023-08-06T14:39:49;2.15;;;1.27;;